createdAt,value
2022-07-26T00:02:28.537Z,20.76
2022-07-26T00:05:12.703Z,20.71
2022-07-26T00:08:10.836Z,20.90
2022-07-26T00:10:54.870Z,21.00
2022-07-26T00:13:38.776Z,21.03
2022-07-26T00:16:24.038Z,21.02
2022-07-26T00:19:08.733Z,20.99
2022-07-26T00:22:13.117Z,20.90
2022-07-26T00:24:56.972Z,20.94
2022-07-26T00:27:41.576Z,20.83
2022-07-26T00:30:25.558Z,20.54
2022-07-26T00:33:10.855Z,20.66
2022-07-26T00:35:54.717Z,20.57
2022-07-26T00:38:38.667Z,20.58
2022-07-26T00:41:22.520Z,20.50
2022-07-26T00:44:06.931Z,20.41
2022-07-26T00:46:50.849Z,20.62
2022-07-26T00:49:36.312Z,20.25
2022-07-26T00:52:20.512Z,20.49
2022-07-26T00:55:05.297Z,20.43
2022-07-26T00:57:49.663Z,20.38
2022-07-26T01:00:34.274Z,20.14
2022-07-26T01:03:18.321Z,20.27
2022-07-26T01:06:03.611Z,20.31
2022-07-26T01:08:47.597Z,20.41
2022-07-26T01:11:31.602Z,20.32
2022-07-26T01:14:15.444Z,19.60
2022-07-26T01:16:59.539Z,20.30
2022-07-26T01:19:43.817Z,20.38
2022-07-26T01:22:29.262Z,20.30
2022-07-26T01:25:13.383Z,20.45
2022-07-26T01:27:57.347Z,20.72
2022-07-26T01:30:41.301Z,20.46
2022-07-26T01:33:28.179Z,20.57
2022-07-26T01:36:12.541Z,20.68
2022-07-26T01:38:57.781Z,20.82
2022-07-26T01:41:41.850Z,20.81
2022-07-26T01:44:25.905Z,20.76
2022-07-26T01:47:09.992Z,20.62
2022-07-26T01:49:53.792Z,20.42
2022-07-26T01:52:39.317Z,20.26
2022-07-26T01:55:24.639Z,20.46
2022-07-26T01:58:09.499Z,20.50
2022-07-26T02:00:53.481Z,20.36
2022-07-26T02:03:37.622Z,20.34
2022-07-26T02:06:21.512Z,20.32
2022-07-26T02:09:05.931Z,20.35
2022-07-26T02:11:52.901Z,19.91
2022-07-26T02:14:36.915Z,20.15
2022-07-26T02:17:20.697Z,20.20
2022-07-26T02:20:06.001Z,20.48
2022-07-26T02:22:49.822Z,20.40
2022-07-26T02:25:33.847Z,20.23
2022-07-26T02:28:19.581Z,20.21
2022-07-26T02:31:03.514Z,20.02
2022-07-26T02:33:47.785Z,20.36
2022-07-26T02:36:31.635Z,20.41
2022-07-26T02:39:16.449Z,20.57
2022-07-26T02:42:02.355Z,20.63
2022-07-26T02:44:47.585Z,20.37
2022-07-26T02:47:33.019Z,20.21
2022-07-26T02:50:18.534Z,20.22
2022-07-26T02:53:02.401Z,20.23
2022-07-26T02:55:46.230Z,20.16
2022-07-26T02:58:30.161Z,20.47
2022-07-26T03:01:15.503Z,20.46
2022-07-26T03:03:59.405Z,20.63
2022-07-26T03:06:43.568Z,20.59
2022-07-26T03:09:27.440Z,20.69
2022-07-26T03:12:11.384Z,20.69
2022-07-26T03:14:55.532Z,20.69
2022-07-26T03:17:40.895Z,20.70
2022-07-26T03:20:24.641Z,20.07
2022-07-26T03:23:08.458Z,20.74
2022-07-26T03:25:52.452Z,20.79
2022-07-26T03:28:37.390Z,20.73
2022-07-26T03:31:21.316Z,20.80
2022-07-26T03:34:06.982Z,20.89
2022-07-26T03:36:51.199Z,21.06
2022-07-26T03:39:35.070Z,21.22
2022-07-26T03:42:18.870Z,21.25
2022-07-26T03:45:03.027Z,21.33
2022-07-26T03:47:47.784Z,21.44
2022-07-26T03:50:33.011Z,21.54
2022-07-26T03:53:16.953Z,20.84
2022-07-26T03:56:18.424Z,21.73
2022-07-26T03:59:05.209Z,21.75
2022-07-26T04:01:49.664Z,21.89
2022-07-26T04:04:33.598Z,22.05
2022-07-26T04:07:20.493Z,22.31
2022-07-26T04:10:06.012Z,22.28
2022-07-26T04:12:49.883Z,22.44
2022-07-26T04:15:33.741Z,22.60
2022-07-26T04:18:17.929Z,22.57
2022-07-26T04:21:01.973Z,22.67
2022-07-26T04:23:51.104Z,22.66
2022-07-26T04:26:35.512Z,22.83
2022-07-26T04:29:19.379Z,23.03
2022-07-26T04:32:03.319Z,23.19
2022-07-26T04:34:47.206Z,23.49
2022-07-26T04:37:32.968Z,23.53
2022-07-26T04:40:21.935Z,23.72
2022-07-26T04:43:07.763Z,24.10
2022-07-26T04:45:54.139Z,24.19
2022-07-26T04:48:39.493Z,24.36
2022-07-26T04:51:23.414Z,24.39
2022-07-26T04:54:08.116Z,24.73
2022-07-26T04:56:53.684Z,25.05
2022-07-26T04:59:37.461Z,25.18
2022-07-26T05:02:21.439Z,25.24
2022-07-26T05:05:06.252Z,24.94
2022-07-26T05:07:51.853Z,24.98
2022-07-26T05:10:37.528Z,25.23
2022-07-26T05:13:23.143Z,25.34
2022-07-26T05:16:15.057Z,25.25
2022-07-26T05:18:59.441Z,25.45
2022-07-26T05:21:43.463Z,25.54
2022-07-26T05:24:27.404Z,25.49
2022-07-26T05:27:11.232Z,25.59
2022-07-26T05:29:56.791Z,25.69
2022-07-26T05:32:41.034Z,25.86
2022-07-26T05:35:24.961Z,25.67
2022-07-26T05:38:08.906Z,25.97
2022-07-26T05:40:52.932Z,25.97
2022-07-26T05:43:40.942Z,26.12
2022-07-26T05:46:27.117Z,26.21
2022-07-26T05:49:11.154Z,26.28
2022-07-26T05:52:00.861Z,26.28
2022-07-26T05:54:45.153Z,26.40
2022-07-26T05:57:28.987Z,26.41
2022-07-26T06:00:13.684Z,26.39
2022-07-26T06:02:58.999Z,26.52
2022-07-26T06:05:42.954Z,26.80
2022-07-26T06:08:27.591Z,26.85
2022-07-26T06:11:11.414Z,26.95
2022-07-26T06:13:56.729Z,27.05
2022-07-26T06:16:40.659Z,27.11
2022-07-26T06:19:25.980Z,27.20
2022-07-26T06:22:09.965Z,27.14
2022-07-26T06:24:53.889Z,27.03
2022-07-26T06:27:37.764Z,27.28
2022-07-26T06:30:21.609Z,27.20
2022-07-26T06:33:05.998Z,27.29
2022-07-26T06:35:51.497Z,26.63
2022-07-26T06:38:35.418Z,27.12
2022-07-26T06:41:19.330Z,27.39
2022-07-26T06:44:03.123Z,27.59
2022-07-26T06:46:47.027Z,27.70
2022-07-26T06:49:31.051Z,27.93
2022-07-26T06:52:16.363Z,28.05
2022-07-26T06:55:00.627Z,27.92
2022-07-26T06:57:49.660Z,27.94
2022-07-26T07:00:34.556Z,27.82
2022-07-26T07:03:18.473Z,28.23
2022-07-26T07:06:02.428Z,28.52
2022-07-26T07:08:49.053Z,28.56
2022-07-26T07:11:32.935Z,28.60
2022-07-26T07:14:16.873Z,28.67
2022-07-26T07:17:00.881Z,29.01
2022-07-26T07:19:44.722Z,29.13
2022-07-26T07:22:28.647Z,29.09
2022-07-26T07:25:14.711Z,29.25
2022-07-26T07:27:58.805Z,29.40
2022-07-26T07:30:42.707Z,29.30
2022-07-26T07:33:27.346Z,29.52
2022-07-26T07:36:20.749Z,29.23
2022-07-26T07:39:07.035Z,29.30
2022-07-26T07:41:54.320Z,29.53
2022-07-26T07:44:38.406Z,29.30
2022-07-26T07:47:22.970Z,29.71
2022-07-26T07:50:08.323Z,28.71
2022-07-26T07:52:52.180Z,29.36
2022-07-26T07:55:41.366Z,29.71
2022-07-26T07:58:29.601Z,29.54
2022-07-26T08:01:13.562Z,29.70
2022-07-26T08:03:58.246Z,29.96
2022-07-26T08:06:42.866Z,30.08
2022-07-26T08:09:34.777Z,30.31
2022-07-26T08:12:18.746Z,30.15
2022-07-26T08:15:07.234Z,29.80
2022-07-26T08:17:54.084Z,30.36
2022-07-26T08:20:38.764Z,30.59
2022-07-26T08:23:24.383Z,30.47
2022-07-26T08:26:08.524Z,30.91
2022-07-26T08:28:59.983Z,30.86
2022-07-26T08:31:45.873Z,30.56
2022-07-26T08:34:29.922Z,30.63
2022-07-26T08:37:17.617Z,30.67
2022-07-26T08:40:01.931Z,30.16
2022-07-26T08:42:52.636Z,31.01
2022-07-26T08:45:36.869Z,31.06
2022-07-26T08:48:22.133Z,31.50
2022-07-26T08:51:11.094Z,31.84
2022-07-26T08:54:04.443Z,32.02
2022-07-26T08:56:52.307Z,31.58
2022-07-26T08:59:36.253Z,31.30
2022-07-26T09:02:20.168Z,31.40
2022-07-26T09:05:07.011Z,31.48
2022-07-26T09:07:50.924Z,31.86
2022-07-26T09:10:39.156Z,32.27
2022-07-26T09:13:23.418Z,32.22
2022-07-26T09:16:11.512Z,32.11
2022-07-26T09:18:55.991Z,31.81
2022-07-26T09:21:41.169Z,32.03
2022-07-26T09:24:36.032Z,32.22
2022-07-26T09:27:20.160Z,32.80
2022-07-26T09:30:09.199Z,32.98
2022-07-26T09:33:04.184Z,33.18
2022-07-26T09:36:02.299Z,32.95
2022-07-26T09:38:49.170Z,33.50
2022-07-26T09:41:35.897Z,33.46
2022-07-26T09:44:24.818Z,34.12
2022-07-26T09:47:08.757Z,34.24
2022-07-26T09:50:11.619Z,33.38
2022-07-26T09:53:04.746Z,33.70
2022-07-26T09:55:59.190Z,33.55
2022-07-26T09:58:43.776Z,33.90
2022-07-26T10:01:27.694Z,34.08
2022-07-26T10:04:12.302Z,33.41
2022-07-26T10:06:58.208Z,33.53
2022-07-26T10:09:47.674Z,33.07
2022-07-26T10:12:35.212Z,32.36
2022-07-26T10:15:41.602Z,32.13
2022-07-26T10:18:47.441Z,31.92
2022-07-26T10:21:33.095Z,32.12
2022-07-26T10:24:26.535Z,31.99
2022-07-26T10:27:30.337Z,31.78
2022-07-26T10:30:33.824Z,32.04
2022-07-26T10:33:23.158Z,32.09
2022-07-26T10:36:23.012Z,32.60
2022-07-26T10:39:10.619Z,32.43
2022-07-26T10:42:00.098Z,31.97
2022-07-26T10:44:45.294Z,31.84
2022-07-26T10:47:35.122Z,31.70
2022-07-26T10:50:33.353Z,32.64
2022-07-26T10:53:23.529Z,32.75
2022-07-26T10:56:07.737Z,32.28
2022-07-26T10:58:51.469Z,32.25
2022-07-26T11:01:36.216Z,32.37
2022-07-26T11:04:22.578Z,31.96
2022-07-26T11:07:06.548Z,31.94
2022-07-26T11:09:50.356Z,32.44
2022-07-26T11:12:34.245Z,32.07
2022-07-26T11:15:19.726Z,32.09
2022-07-26T11:18:12.873Z,32.29
2022-07-26T11:21:08.984Z,32.40
2022-07-26T11:23:52.952Z,31.99
2022-07-26T11:26:42.819Z,31.83
2022-07-26T11:29:38.152Z,32.21
2022-07-26T11:32:27.631Z,32.44
2022-07-26T11:35:12.083Z,32.90
2022-07-26T11:38:11.330Z,32.87
2022-07-26T11:40:55.855Z,33.50
2022-07-26T11:43:39.785Z,32.80
2022-07-26T11:46:25.126Z,32.52
2022-07-26T11:49:17.407Z,32.72
2022-07-26T11:52:02.909Z,33.20
2022-07-26T11:54:49.839Z,33.35
2022-07-26T11:57:33.818Z,32.39
2022-07-26T12:00:19.388Z,32.66
2022-07-26T12:03:03.221Z,33.28
2022-07-26T12:06:03.241Z,33.36
2022-07-26T12:08:52.728Z,33.64
2022-07-26T12:11:41.909Z,33.07
2022-07-26T12:14:29.825Z,32.56
2022-07-26T12:17:15.385Z,32.39
2022-07-26T12:20:12.123Z,32.80
2022-07-26T12:22:57.732Z,32.62
2022-07-26T12:25:44.896Z,33.23
2022-07-26T12:28:44.124Z,33.11
2022-07-26T12:31:30.034Z,32.36
2022-07-26T12:34:14.466Z,32.37
2022-07-26T12:37:08.402Z,32.55
2022-07-26T12:40:05.964Z,32.84
2022-07-26T12:43:00.728Z,32.75
2022-07-26T12:45:48.582Z,33.51
2022-07-26T12:48:32.583Z,32.55
2022-07-26T12:51:16.596Z,33.45
2022-07-26T12:54:00.479Z,33.72
2022-07-26T12:56:44.418Z,33.68
2022-07-26T12:59:30.890Z,33.25
2022-07-26T13:02:17.866Z,33.15
2022-07-26T13:05:04.461Z,33.36
2022-07-26T13:07:48.592Z,32.97
2022-07-26T13:10:34.647Z,33.61
2022-07-26T13:13:19.298Z,32.96
2022-07-26T13:16:06.769Z,33.82
2022-07-26T13:18:56.502Z,34.00
2022-07-26T13:21:40.472Z,34.19
2022-07-26T13:24:25.079Z,33.11
2022-07-26T13:27:09.712Z,32.28
2022-07-26T13:29:53.569Z,32.34
2022-07-26T13:32:37.517Z,33.37
2022-07-26T13:35:22.838Z,33.47
2022-07-26T13:38:06.765Z,32.81
2022-07-26T13:40:51.445Z,33.41
2022-07-26T13:43:36.462Z,33.59
2022-07-26T13:46:20.302Z,34.40
2022-07-26T13:49:05.578Z,35.04
2022-07-26T13:52:00.040Z,34.52
2022-07-26T13:54:43.918Z,35.05
2022-07-26T13:57:47.969Z,34.86
2022-07-26T14:00:31.659Z,35.05
2022-07-26T14:03:16.099Z,34.58
2022-07-26T14:06:00.065Z,35.16
2022-07-26T14:08:45.619Z,35.30
2022-07-26T14:11:29.435Z,34.08
2022-07-26T14:14:13.864Z,33.24
2022-07-26T14:16:58.014Z,33.47
2022-07-26T14:19:41.965Z,33.42
2022-07-26T14:22:26.107Z,33.29
2022-07-26T14:25:11.930Z,33.65
2022-07-26T14:27:56.540Z,33.82
2022-07-26T14:30:40.973Z,33.18
2022-07-26T14:33:24.862Z,33.90
2022-07-26T14:36:09.626Z,34.42
2022-07-26T14:38:53.543Z,34.00
2022-07-26T14:41:38.850Z,32.97
2022-07-26T14:44:22.772Z,33.37
2022-07-26T14:47:08.687Z,33.35
2022-07-26T14:49:52.630Z,33.69
2022-07-26T14:52:38.354Z,34.33
2022-07-26T14:55:25.392Z,34.33
2022-07-26T14:58:11.073Z,34.19
2022-07-26T15:00:55.578Z,33.56
2022-07-26T15:03:39.705Z,33.38
2022-07-26T15:06:23.837Z,33.79
2022-07-26T15:09:07.871Z,34.47
2022-07-26T15:11:52.274Z,34.12
2022-07-26T15:14:37.927Z,33.70
2022-07-26T15:17:21.984Z,32.97
2022-07-26T15:20:07.851Z,33.98
2022-07-26T15:22:53.954Z,34.29
2022-07-26T15:25:38.209Z,33.10
2022-07-26T15:28:22.113Z,34.07
2022-07-26T15:31:07.380Z,32.86
2022-07-26T15:33:51.422Z,33.24
2022-07-26T15:36:35.785Z,32.89
2022-07-26T15:39:19.743Z,33.50
2022-07-26T15:42:07.503Z,33.23
2022-07-26T15:44:51.910Z,33.64
2022-07-26T15:47:53.985Z,33.74
2022-07-26T15:50:40.138Z,33.70
2022-07-26T15:53:24.332Z,33.84
2022-07-26T15:56:08.300Z,33.70
2022-07-26T15:58:52.199Z,33.26
2022-07-26T16:01:36.548Z,33.58
2022-07-26T16:04:22.036Z,34.09
2022-07-26T16:07:06.092Z,33.61
2022-07-26T16:09:50.307Z,33.01
2022-07-26T16:12:34.889Z,33.40
2022-07-26T16:15:19.238Z,33.48
2022-07-26T16:18:06.419Z,33.50
2022-07-26T16:20:51.962Z,33.26
2022-07-26T16:23:36.621Z,33.28
2022-07-26T16:26:20.432Z,33.56
2022-07-26T16:29:05.992Z,32.99
2022-07-26T16:31:50.143Z,33.02
2022-07-26T16:34:34.895Z,33.12
2022-07-26T16:37:20.124Z,32.21
2022-07-26T16:40:04.121Z,31.19
2022-07-26T16:42:48.108Z,32.16
2022-07-26T16:45:31.987Z,32.35
2022-07-26T16:48:17.134Z,32.04
2022-07-26T16:51:01.161Z,31.48
2022-07-26T16:53:48.485Z,31.56
2022-07-26T16:56:32.640Z,30.93
2022-07-26T16:59:17.762Z,31.37
2022-07-26T17:02:03.084Z,31.60
2022-07-26T17:04:47.157Z,31.36
2022-07-26T17:07:32.089Z,30.85
2022-07-26T17:10:18.284Z,30.74
2022-07-26T17:13:02.267Z,30.12
2022-07-26T17:15:46.244Z,30.28
2022-07-26T17:18:30.547Z,29.81
2022-07-26T17:21:14.552Z,29.75
2022-07-26T17:24:00.578Z,29.39
2022-07-26T17:26:49.216Z,29.59
2022-07-26T17:29:33.148Z,29.74
2022-07-26T17:32:17.077Z,29.09
2022-07-26T17:35:01.039Z,28.73
2022-07-26T17:37:47.470Z,28.74
2022-07-26T17:40:31.758Z,28.60
2022-07-26T17:43:17.616Z,28.62
2022-07-26T17:46:01.578Z,28.61
2022-07-26T17:48:47.175Z,28.47
2022-07-26T17:51:31.136Z,28.75
2022-07-26T17:54:15.029Z,28.63
2022-07-26T17:56:58.883Z,28.16
2022-07-26T17:59:44.546Z,28.59
2022-07-26T18:02:28.424Z,28.41
2022-07-26T18:05:12.487Z,28.32
2022-07-26T18:07:56.393Z,28.65
2022-07-26T18:10:40.195Z,28.70
2022-07-26T18:13:24.751Z,28.98
2022-07-26T18:16:10.092Z,29.00
2022-07-26T18:18:54.324Z,29.14
2022-07-26T18:21:38.091Z,29.15
2022-07-26T18:24:22.011Z,29.19
2022-07-26T18:27:06.306Z,29.12
2022-07-26T18:29:50.514Z,29.15
2022-07-26T18:32:36.047Z,29.13
2022-07-26T18:35:20.144Z,28.95
2022-07-26T18:38:04.392Z,29.04
2022-07-26T18:40:48.499Z,28.80
2022-07-26T18:43:32.544Z,28.64
2022-07-26T18:46:16.637Z,28.43
2022-07-26T18:49:02.379Z,28.49
2022-07-26T18:51:48.456Z,28.30
2022-07-26T18:54:33.113Z,28.19
2022-07-26T18:57:16.920Z,27.97
2022-07-26T19:00:00.895Z,27.71
2022-07-26T19:02:46.654Z,27.79
2022-07-26T19:05:35.370Z,27.62
2022-07-26T19:08:19.582Z,27.37
2022-07-26T19:11:03.667Z,27.22
2022-07-26T19:13:47.737Z,27.14
2022-07-26T19:16:31.771Z,26.65
2022-07-26T19:19:16.246Z,27.13
2022-07-26T19:22:01.692Z,26.77
2022-07-26T19:24:58.626Z,26.56
2022-07-26T19:27:42.779Z,26.59
2022-07-26T19:30:26.677Z,26.65
2022-07-26T19:33:10.643Z,26.60
2022-07-26T19:35:54.621Z,26.34
2022-07-26T19:38:39.888Z,26.17
2022-07-26T19:41:24.139Z,26.22
2022-07-26T19:44:07.971Z,26.33
2022-07-26T19:46:56.970Z,26.36
2022-07-26T19:49:41.461Z,26.47
2022-07-26T19:52:25.306Z,26.49
2022-07-26T19:55:11.467Z,26.47
2022-07-26T19:57:55.461Z,26.28
2022-07-26T20:00:39.646Z,26.43
2022-07-26T20:03:23.557Z,26.36
2022-07-26T20:06:07.836Z,26.37
2022-07-26T20:08:52.414Z,26.33
2022-07-26T20:11:38.853Z,26.38
2022-07-26T20:14:22.848Z,26.22
2022-07-26T20:17:12.149Z,26.12
2022-07-26T20:19:57.062Z,26.19
2022-07-26T20:22:40.924Z,26.09
2022-07-26T20:25:25.272Z,25.55
2022-07-26T20:28:10.513Z,25.68
2022-07-26T20:30:55.121Z,25.79
2022-07-26T20:33:39.142Z,25.84
2022-07-26T20:36:23.116Z,25.80
2022-07-26T20:39:07.152Z,25.46
2022-07-26T20:41:51.146Z,25.55
2022-07-26T20:44:39.620Z,25.67
2022-07-26T20:47:23.554Z,25.49
2022-07-26T20:50:08.941Z,25.15
2022-07-26T20:52:52.839Z,25.23
2022-07-26T20:55:36.629Z,25.28
2022-07-26T20:58:21.674Z,25.32
2022-07-26T21:01:07.605Z,25.05
2022-07-26T21:03:51.484Z,25.16
2022-07-26T21:06:35.343Z,25.04
2022-07-26T21:09:19.263Z,25.05
2022-07-26T21:12:03.213Z,24.76
2022-07-26T21:14:47.178Z,25.04
2022-07-26T21:17:32.721Z,24.97
2022-07-26T21:20:18.769Z,24.86
2022-07-26T21:23:16.079Z,24.87
2022-07-26T21:26:01.185Z,24.90
2022-07-26T21:28:45.059Z,24.74
2022-07-26T21:31:29.004Z,24.63
2022-07-26T21:34:14.356Z,24.58
2022-07-26T21:36:58.299Z,24.63
2022-07-26T21:39:42.278Z,24.54
2022-07-26T21:42:26.905Z,24.51
2022-07-26T21:45:11.611Z,24.54
2022-07-26T21:47:55.476Z,24.36
2022-07-26T21:50:40.720Z,24.01
2022-07-26T21:53:24.563Z,24.31
2022-07-26T21:56:08.490Z,24.14
2022-07-26T21:58:52.420Z,23.85
2022-07-26T22:01:36.285Z,23.85
2022-07-26T22:04:21.968Z,23.89
2022-07-26T22:07:07.284Z,23.92
2022-07-26T22:09:51.149Z,23.64
2022-07-26T22:12:35.042Z,23.42
2022-07-26T22:15:19.124Z,23.69
2022-07-26T22:18:03.468Z,23.43
2022-07-26T22:20:49.244Z,23.59
2022-07-26T22:23:34.501Z,23.85
2022-07-26T22:26:18.866Z,23.90
2022-07-26T22:29:03.138Z,24.08
2022-07-26T22:31:47.032Z,24.25
2022-07-26T22:34:30.981Z,24.26
2022-07-26T22:37:14.942Z,24.22
2022-07-26T22:40:00.288Z,23.82
2022-07-26T22:42:44.737Z,24.15
2022-07-26T22:45:29.815Z,23.78
2022-07-26T22:48:13.844Z,23.86
2022-07-26T22:50:57.965Z,23.71
2022-07-26T22:53:41.950Z,23.77
2022-07-26T22:56:27.375Z,23.86
2022-07-26T22:59:11.619Z,23.79
2022-07-26T23:01:56.754Z,23.87
2022-07-26T23:04:40.740Z,23.96
2022-07-26T23:07:24.540Z,23.84
2022-07-26T23:10:10.674Z,23.76
2022-07-26T23:12:56.512Z,23.55
2022-07-26T23:15:40.431Z,23.67
2022-07-26T23:18:24.493Z,23.80
2022-07-26T23:21:08.537Z,23.67
2022-07-26T23:23:52.425Z,23.66
2022-07-26T23:26:36.533Z,23.57
2022-07-26T23:29:21.851Z,23.55
2022-07-26T23:32:06.501Z,23.56
2022-07-26T23:34:52.359Z,23.57
2022-07-26T23:37:36.203Z,23.60
2022-07-26T23:40:21.167Z,23.53
2022-07-26T23:43:05.214Z,23.13
2022-07-26T23:45:50.541Z,23.40
2022-07-26T23:48:34.438Z,23.40
2022-07-26T23:51:19.535Z,23.38
2022-07-26T23:54:03.534Z,23.29
2022-07-26T23:56:47.626Z,23.36
2022-07-26T23:59:31.440Z,23.32
